Time;durP1;ratioP1;P1;durP2;ratioP2;P2;SDS_P1;SDS_P2;PMS_P1;PMS_P2;Temp;Humidity;BMP_temperature;BMP_pressure;BME280_temperature;BME280_humidity;BME280_pressure;Samples;Min_cycle;Max_cycle;Signal;HPM_P1;HPM_P2
2022/09/09 00:00:13;;;;;;;;;;;;;;;15.69;100.00;100668.31;5065435;28;19928;-41
2022/09/09 00:02:42;;;;;;;;;;;;;;;15.68;100.00;100672.28;5070926;28;19928;-37
2022/09/09 00:05:15;;;;;;;;;;;;;;;15.67;100.00;100659.38;5071458;28;19966;-32
2022/09/09 00:07:46;;;;;;;;;;;;;;;15.65;100.00;100661.72;5070916;28;20018;-33
2022/09/09 00:10:21;;;;;;;;;;;;;;;15.62;100.00;100662.38;5071263;28;19936;-34
2022/09/09 00:12:55;;;;;;;;;;;;;;;15.61;100.00;100663.53;5071556;28;19932;-37
2022/09/09 00:15:24;;;;;;;;;;;;;;;15.59;100.00;100658.25;5070836;28;19928;-33
2022/09/09 00:17:55;;;;;;;;;;;;;;;15.59;100.00;100658.25;5057099;28;19932;-38
2022/09/09 00:20:28;;;;;;;;;;;;;;;15.58;100.00;100656.63;5071318;28;20441;-38
2022/09/09 00:22:59;;;;;;;;;;;;;;;15.57;100.00;100649.34;5068068;28;19978;-32
2022/09/09 00:25:30;;;;;;;;;;;;;;;15.57;100.00;100651.34;5071183;28;19982;-40
2022/09/09 00:27:58;;;;;;;;;;;;;;;15.55;100.00;100648.84;5069888;28;19932;-35
2022/09/09 00:30:27;;;;;;;;;;;;;;;15.52;100.00;100647.53;5052285;28;19928;-37
2022/09/09 00:32:57;;;;;;;;;;;;;;;15.52;100.00;100653.16;5071362;28;20332;-38
2022/09/09 00:35:27;;;;;;;;;;;;;;;15.49;100.00;100651.00;5071148;28;20290;-37
2022/09/09 00:37:57;;;;;;;;;;;;;;;15.47;100.00;100655.31;5070764;28;19931;-33
2022/09/09 00:40:27;;;;;;;;;;;;;;;15.44;100.00;100650.34;5071513;28;19928;-33
2022/09/09 00:43:04;;;;;;;;;;;;;;;15.41;100.00;100663.09;5066450;28;19931;-38
2022/09/09 00:45:40;;;;;;;;;;;;;;;15.38;100.00;100661.00;5037750;28;19947;-36
2022/09/09 00:48:11;;;;;;;;;;;;;;;15.35;100.00;100661.66;5048790;28;19999;-33
2022/09/09 00:50:49;;;;;;;;;;;;;;;15.33;100.00;100655.53;5058234;28;20337;-34
2022/09/09 00:53:22;;;;;;;;;;;;;;;15.30;100.00;100644.97;5048641;28;20254;-34
2022/09/09 00:55:54;;;;;;;;;;;;;;;15.29;100.00;100656.53;5054965;28;20395;-34
2022/09/09 00:58:23;;;;;;;;;;;;;;;15.27;100.00;100645.63;5052153;28;20258;-34
2022/09/09 01:00:53;;;;;;;;;;;;;;;15.27;100.00;100651.25;5070777;28;19982;-33
2022/09/09 01:03:24;;;;;;;;;;;;;;;15.26;100.00;100649.59;5052707;28;20027;-31
2022/09/09 01:05:55;;;;;;;;;;;;;;;15.25;100.00;100645.13;5070762;28;19936;-36
2022/09/09 01:08:38;;;;;;;;;;;;;;;15.24;100.00;100649.09;5063162;28;19925;-38
2022/09/09 01:11:10;;;;;;;;;;;;;;;15.24;100.00;100649.09;5070191;28;19924;-35
2022/09/09 01:13:40;;;;;;;;;;;;;;;15.26;100.00;100648.78;5052865;28;19929;-35
2022/09/09 01:16:12;;;;;;;;;;;;;;;15.27;100.00;100653.25;5050035;28;20431;-40
2022/09/09 01:18:42;;;;;;;;;;;;;;;15.27;100.00;100659.69;5036605;28;19925;-32
2022/09/09 01:21:15;;;;;;;;;;;;;;;15.29;100.00;100648.09;5053649;28;19966;-38
2022/09/09 01:23:51;;;;;;;;;;;;;;;15.30;100.00;100647.78;5051524;28;19925;-32
2022/09/09 01:26:27;;;;;;;;;;;;;;;15.31;100.00;100642.97;5070303;28;20011;-34
2022/09/09 01:28:58;;;;;;;;;;;;;;;15.31;100.00;100641.00;5048349;28;19966;-37
2022/09/09 01:31:36;;;;;;;;;;;;;;;15.32;100.00;100642.66;5033765;28;20374;-32
2022/09/09 01:34:09;;;;;;;;;;;;;;;15.32;100.00;100637.03;5038218;28;20306;-34
2022/09/09 01:36:41;;;;;;;;;;;;;;;15.34;100.00;100636.69;5036984;28;20009;-35
2022/09/09 01:39:09;;;;;;;;;;;;;;;15.34;100.00;100634.69;5042142;28;19924;-33
2022/09/09 01:41:39;;;;;;;;;;;;;;;15.34;100.00;100631.88;5040632;28;19928;-40
2022/09/09 01:44:10;;;;;;;;;;;;;;;15.35;100.00;100627.91;5042828;28;19931;-40
2022/09/09 01:46:40;;;;;;;;;;;;;;;15.37;100.00;100619.97;5044739;28;20405;-41
2022/09/09 01:49:14;;;;;;;;;;;;;;;15.39;100.00;100617.63;5041090;28;19999;-34
2022/09/09 01:51:44;;;;;;;;;;;;;;;15.40;100.00;100627.72;5045902;28;19925;-33
2022/09/09 01:54:14;;;;;;;;;;;;;;;15.41;100.00;100632.16;5041651;28;19936;-33
2022/09/09 01:56:48;;;;;;;;;;;;;;;15.42;100.00;100624.56;5043806;28;19925;-36
2022/09/09 01:59:25;;;;;;;;;;;;;;;15.40;100.00;100627.72;5042178;28;19925;-33
2022/09/09 02:02:07;;;;;;;;;;;;;;;15.38;100.00;100630.06;5033534;28;19972;-37
2022/09/09 02:04:38;;;;;;;;;;;;;;;15.36;100.00;100632.38;5042263;28;19951;-35
2022/09/09 02:07:18;;;;;;;;;;;;;;;15.33;100.00;100627.44;5037386;28;19929;-35
2022/09/09 02:09:47;;;;;;;;;;;;;;;15.30;100.00;100628.09;5039008;28;19978;-38
2022/09/09 02:12:19;;;;;;;;;;;;;;;15.26;100.00;100621.50;5044347;28;19936;-34
2022/09/09 02:14:56;;;;;;;;;;;;;;;15.22;100.00;100620.50;5041303;28;20294;-32
2022/09/09 02:17:27;;;;;;;;;;;;;;;15.17;100.00;100623.53;5042148;28;20020;-38
2022/09/09 02:20:04;;;;;;;;;;;;;;;15.12;100.00;100615.25;5041831;28;19956;-36
2022/09/09 02:22:43;;;;;;;;;;;;;;;15.09;100.00;100613.94;5042674;28;19929;-34
2022/09/09 02:25:15;;;;;;;;;;;;;;;15.07;100.00;100621.06;5041722;28;19975;-40
2022/09/09 02:27:46;;;;;;;;;;;;;;;15.06;100.00;100622.22;5042213;28;19947;-34
2022/09/09 02:30:14;;;;;;;;;;;;;;;15.04;100.00;100611.31;5051900;28;19932;-32
2022/09/09 02:32:49;;;;;;;;;;;;;;;15.03;100.00;100612.47;5044640;28;20385;-38
2022/09/09 02:35:20;;;;;;;;;;;;;;;15.03;100.00;100611.63;5072381;28;20313;-32
2022/09/09 02:37:47;;;;;;;;;;;;;;;15.01;100.00;100613.97;5073060;28;20012;-37
2022/09/09 02:40:16;;;;;;;;;;;;;;;15.01;100.00;100613.97;5054788;28;20285;-39
2022/09/09 02:42:50;;;;;;;;;;;;;;;15.00;100.00;100612.31;5054455;28;20277;-32
2022/09/09 02:45:24;;;;;;;;;;;;;;;14.99;100.00;100610.66;5055000;28;20072;-32
2022/09/09 02:47:59;;;;;;;;;;;;;;;14.96;100.00;100611.34;5068791;28;20397;-41
2022/09/09 02:50:33;;;;;;;;;;;;;;;14.95;100.00;100618.13;5053683;28;19954;-35
2022/09/09 02:53:07;;;;;;;;;;;;;;;14.93;100.00;100612.00;5058319;28;19929;-40
2022/09/09 02:55:39;;;;;;;;;;;;;;;14.90;100.00;100624.75;5054331;28;20354;-32
2022/09/09 02:58:13;;;;;;;;;;;;;;;14.88;100.00;100623.44;5053737;28;19954;-30
2022/09/09 03:00:41;;;;;;;;;;;;;;;14.85;100.00;100621.28;5072592;28;20473;-39
2022/09/09 03:03:09;;;;;;;;;;;;;;;14.83;100.00;100624.41;5072041;28;19966;-43
2022/09/09 03:05:38;;;;;;;;;;;;;;;14.81;100.00;100615.50;5054259;28;19970;-36
2022/09/09 03:08:06;;;;;;;;;;;;;;;14.79;100.00;100607.41;5054259;28;20389;-36
2022/09/09 03:10:34;;;;;;;;;;;;;;;14.77;100.00;100611.72;5053936;28;19928;-32
2022/09/09 03:13:04;;;;;;;;;;;;;;;14.76;100.00;100610.06;5054464;28;19947;-39
2022/09/09 03:15:40;;;;;;;;;;;;;;;14.74;100.00;100610.41;5039427;28;20274;-42
2022/09/09 03:18:12;;;;;;;;;;;;;;;14.73;100.00;100605.13;5049789;28;19928;-34
2022/09/09 03:20:41;;;;;;;;;;;;;;;14.72;100.00;100595.88;5055853;28;19929;-32
2022/09/09 03:23:10;;;;;;;;;;;;;;;14.71;100.00;100602.66;5054347;28;20389;-38
2022/09/09 03:25:47;;;;;;;;;;;;;;;14.69;100.00;100596.53;5053515;28;19925;-39
2022/09/09 03:28:16;;;;;;;;;;;;;;;14.68;100.00;100600.50;5053726;28;19929;-40
2022/09/09 03:30:45;;;;;;;;;;;;;;;14.66;100.00;100593.56;5052188;28;19951;-31
2022/09/09 03:33:14;;;;;;;;;;;;;;;14.65;100.00;100595.53;5043634;28;19928;-34
2022/09/09 03:35:47;;;;;;;;;;;;;;;14.64;100.00;100593.88;5062339;28;19929;-32
2022/09/09 03:38:15;;;;;;;;;;;;;;;14.63;100.00;100591.41;5048234;28;20015;-40
2022/09/09 03:40:49;;;;;;;;;;;;;;;14.62;100.00;100587.78;5052518;28;19935;-32
2022/09/09 03:43:17;;;;;;;;;;;;;;;14.63;100.00;100592.25;5069253;28;19928;-33
2022/09/09 03:45:48;;;;;;;;;;;;;;;14.61;100.00;100586.13;5053052;28;19925;-32
2022/09/09 03:48:16;;;;;;;;;;;;;;;14.60;100.00;100592.91;5053280;28;19932;-39
2022/09/09 03:50:47;;;;;;;;;;;;;;;14.59;100.00;100579.22;5053956;28;19932;-32
2022/09/09 03:53:15;;;;;;;;;;;;;;;14.58;100.00;100586.00;5058555;28;19943;-37
2022/09/09 03:55:45;;;;;;;;;;;;;;;14.56;100.00;100586.31;5053685;28;19948;-36
2022/09/09 03:58:13;;;;;;;;;;;;;;;14.54;100.00;100588.63;5070934;28;19925;-37
2022/09/09 04:00:42;;;;;;;;;;;;;;;14.55;100.00;100584.66;5033234;28;20404;-39
2022/09/09 04:03:12;;;;;;;;;;;;;;;14.52;100.00;100585.34;5046814;28;19939;-32
2022/09/09 04:05:42;;;;;;;;;;;;;;;14.53;100.00;100592.59;5053576;28;19932;-42
2022/09/09 04:08:11;;;;;;;;;;;;;;;14.53;100.00;100580.53;5052658;28;20015;-39
2022/09/09 04:10:38;;;;;;;;;;;;;;;14.53;100.00;100584.19;5071648;28;19924;-32
2022/09/09 04:13:06;;;;;;;;;;;;;;;14.54;100.00;100585.00;5071603;28;19924;-40
2022/09/09 04:15:35;;;;;;;;;;;;;;;14.54;100.00;100580.22;5070658;28;20002;-34
2022/09/09 04:18:03;;;;;;;;;;;;;;;14.54;100.00;100576.56;5053145;28;20325;-39
2022/09/09 04:20:32;;;;;;;;;;;;;;;14.56;100.00;100569.47;5052806;28;19960;-33
2022/09/09 04:23:00;;;;;;;;;;;;;;;14.56;100.00;100565.84;5053086;28;20386;-39
2022/09/09 04:25:28;;;;;;;;;;;;;;;14.57;100.00;100562.69;5053274;28;19924;-32
2022/09/09 04:27:57;;;;;;;;;;;;;;;14.56;100.00;100560.22;5070693;28;20007;-33
2022/09/09 04:30:27;;;;;;;;;;;;;;;14.58;100.00;100563.53;5052681;28;20462;-35
2022/09/09 04:32:54;;;;;;;;;;;;;;;14.57;100.00;100557.09;5053272;28;19986;-42
2022/09/09 04:35:22;;;;;;;;;;;;;;;14.57;100.00;100562.69;5052246;28;19924;-35
2022/09/09 04:37:51;;;;;;;;;;;;;;;14.57;100.00;100561.88;5071128;28;19924;-33
2022/09/09 04:40:19;;;;;;;;;;;;;;;14.57;100.00;100561.88;5057123;28;19932;-35
2022/09/09 04:42:47;;;;;;;;;;;;;;;14.57;100.00;100565.50;5049361;28;19924;-37
2022/09/09 04:45:15;;;;;;;;;;;;;;;14.55;100.00;100565.00;5052787;28;19925;-32
2022/09/09 04:47:43;;;;;;;;;;;;;;;14.53;100.00;100564.53;5053260;28;19932;-36
2022/09/09 04:50:11;;;;;;;;;;;;;;;14.51;100.00;100555.59;5051504;28;20007;-32
2022/09/09 04:52:39;;;;;;;;;;;;;;;14.51;100.00;100561.22;5071340;28;19951;-32
2022/09/09 04:55:09;;;;;;;;;;;;;;;14.50;100.00;100553.94;5070626;28;19932;-32
2022/09/09 04:57:37;;;;;;;;;;;;;;;14.50;100.00;100553.13;5052052;28;19931;-32
2022/09/09 05:00:05;;;;;;;;;;;;;;;14.50;100.00;100559.56;5051981;28;19932;-33
2022/09/09 05:02:37;;;;;;;;;;;;;;;14.48;100.00;100559.06;5051341;28;19929;-32
2022/09/09 05:05:06;;;;;;;;;;;;;;;14.48;100.00;100550.66;5050235;28;19978;-35
2022/09/09 05:07:33;;;;;;;;;;;;;;;14.48;100.00;100548.66;5051683;28;19924;-36
2022/09/09 05:10:03;;;;;;;;;;;;;;;14.45;100.00;100551.31;5051689;28;19925;-32
2022/09/09 05:12:33;;;;;;;;;;;;;;;14.44;100.00;100555.28;5052438;28;19948;-33
2022/09/09 05:15:01;;;;;;;;;;;;;;;14.45;100.00;100551.31;5057334;28;20023;-41
2022/09/09 05:17:30;;;;;;;;;;;;;;;14.44;100.00;100549.66;5055486;28;19936;-36
2022/09/09 05:19:58;;;;;;;;;;;;;;;14.43;100.00;100564.84;5074632;28;19929;-34
2022/09/09 05:22:26;;;;;;;;;;;;;;;14.42;100.00;100554.78;5074349;28;20027;-32
2022/09/09 05:24:54;;;;;;;;;;;;;;;14.41;100.00;100553.94;5055740;28;19963;-38
2022/09/09 05:27:22;;;;;;;;;;;;;;;14.42;100.00;100558.41;5056115;28;19932;-36
2022/09/09 05:29:51;;;;;;;;;;;;;;;14.41;100.00;100547.50;5074286;28;19953;-38
2022/09/09 05:32:19;;;;;;;;;;;;;;;14.42;100.00;100561.22;5073559;28;19947;-35
2022/09/09 05:34:49;;;;;;;;;;;;;;;14.41;100.00;100564.34;5053872;28;20015;-43
2022/09/09 05:37:18;;;;;;;;;;;;;;;14.39;100.00;100567.47;5051403;28;19928;-37
2022/09/09 05:39:46;;;;;;;;;;;;;;;14.40;100.00;100568.28;5054425;28;19924;-32
2022/09/09 05:42:15;;;;;;;;;;;;;;;14.40;100.00;100565.47;5055982;28;20358;-33
2022/09/09 05:44:44;;;;;;;;;;;;;;;14.40;100.00;100557.06;5052072;28;19940;-32
2022/09/09 05:47:15;;;;;;;;;;;;;;;14.39;100.00;100555.41;5053716;28;19936;-33
2022/09/09 05:49:43;;;;;;;;;;;;;;;14.38;100.00;100562.22;5054761;28;20344;-37
2022/09/09 05:52:10;;;;;;;;;;;;;;;14.38;100.00;100550.97;5053709;28;20243;-34
2022/09/09 05:54:40;;;;;;;;;;;;;;;14.41;100.00;100558.75;5054841;28;19974;-32
2022/09/09 05:57:08;;;;;;;;;;;;;;;14.42;100.00;100549.16;5054052;28;19928;-35
2022/09/09 05:59:35;;;;;;;;;;;;;;;14.46;100.00;100552.97;5072242;28;20396;-38
2022/09/09 06:02:03;;;;;;;;;;;;;;;14.49;100.00;100549.50;5071537;28;19931;-32
2022/09/09 06:04:37;;;;;;;;;;;;;;;14.53;100.00;100555.28;5054411;28;19993;-33
2022/09/09 06:07:05;;;;;;;;;;;;;;;14.55;100.00;100562.22;5052859;28;19928;-33
2022/09/09 06:09:32;;;;;;;;;;;;;;;14.57;100.00;100554.28;5057768;28;19936;-33
2022/09/09 06:12:00;;;;;;;;;;;;;;;14.60;100.00;100559.19;5072077;28;19928;-33
2022/09/09 06:14:32;;;;;;;;;;;;;;;14.65;100.00;100555.41;5053670;28;19928;-34
2022/09/09 06:17:00;;;;;;;;;;;;;;;14.69;100.00;100554.41;5053932;28;19968;-35
2022/09/09 06:19:30;;;;;;;;;;;;;;;14.74;100.00;100553.41;5063303;28;19975;-32
2022/09/09 06:22:00;;;;;;;;;;;;;;;14.77;100.00;100553.56;5052817;28;19928;-33
2022/09/09 06:24:31;;;;;;;;;;;;;;;14.81;100.00;100551.72;5060924;28;19925;-32
2022/09/09 06:27:00;;;;;;;;;;;;;;;14.84;100.00;100547.41;5053362;28;20383;-32
2022/09/09 06:29:32;;;;;;;;;;;;;;;14.88;100.00;100553.19;5049640;28;20437;-37
2022/09/09 06:32:00;;;;;;;;;;;;;;;14.92;100.00;100555.00;5071971;28;19928;-33
2022/09/09 06:34:28;;;;;;;;;;;;;;;14.99;100.00;100549.66;5070866;28;20448;-36
2022/09/09 06:36:58;;;;;;;;;;;;;;;15.07;100.00;100562.88;5072358;28;19940;-37
2022/09/09 06:39:33;;;;;;;;;;;;;;;15.11;100.00;100563.03;5053590;28;19967;-34
2022/09/09 06:42:01;;;;;;;;;;;;;;;15.15;100.00;100552.75;5064401;28;19924;-38
2022/09/09 06:44:43;;;;;;;;;;;;;;;15.19;100.00;100553.72;5065633;28;19932;-34
2022/09/09 06:47:17;;;;;;;;;;;;;;;15.21;100.00;100557.00;5067010;28;20744;-34
2022/09/09 06:49:46;;;;;;;;;;;;;;;15.24;100.00;100558.31;5052217;28;20015;-39
2022/09/09 06:52:18;;;;;;;;;;;;;;;15.25;100.00;100552.38;5053850;28;20328;-33
2022/09/09 06:54:47;;;;;;;;;;;;;;;15.26;100.00;100553.19;5052612;28;20378;-33
2022/09/09 06:57:16;;;;;;;;;;;;;;;15.29;100.00;100558.97;5052560;28;19932;-34
2022/09/09 07:00:09;;;;;;;;;;;;;;;15.32;100.00;100561.09;5042984;28;20393;-33
2022/09/09 07:02:39;;;;;;;;;;;;;;;15.34;100.00;100555.97;5070787;28;20422;-39
2022/09/09 07:05:09;;;;;;;;;;;;;;;15.36;100.00;100550.84;5056822;28;19928;-34
2022/09/09 07:07:37;;;;;;;;;;;;;;;15.38;100.00;100553.31;5055218;28;19937;-32
2022/09/09 07:10:08;;;;;;;;;;;;;;;15.44;100.00;100561.19;5052145;28;19928;-32
2022/09/09 07:12:37;;;;;;;;;;;;;;;15.54;100.00;100565.63;5053340;28;20335;-33
2022/09/09 07:15:05;;;;;;;;;;;;;;;15.65;100.00;100569.72;5052384;28;19932;-36
2022/09/09 07:17:33;;;;;;;;;;;;;;;15.87;100.00;100574.19;5052645;28;20439;-34
2022/09/09 07:20:01;;;;;;;;;;;;;;;16.13;100.00;100569.22;5051792;28;19971;-36
2022/09/09 07:22:29;;;;;;;;;;;;;;;16.49;100.00;100568.56;5052915;28;19968;-32
2022/09/09 07:24:57;;;;;;;;;;;;;;;16.85;100.00;100567.03;5056953;28;20019;-31
2022/09/09 07:27:27;;;;;;;;;;;;;;;17.14;100.00;100566.88;5052492;28;19928;-33
2022/09/09 07:29:54;;;;;;;;;;;;;;;17.24;100.00;100568.41;5070463;28;19950;-34
2022/09/09 07:32:22;;;;;;;;;;;;;;;17.35;100.00;100566.78;5070204;28;19924;-31
2022/09/09 07:34:50;;;;;;;;;;;;;;;17.50;100.00;100563.25;5051944;28;19928;-35
2022/09/09 07:37:18;;;;;;;;;;;;;;;17.67;100.00;100561.38;5052844;28;20005;-29
2022/09/09 07:39:47;;;;;;;;;;;;;;;17.78;100.00;100556.91;5052316;28;19925;-32
2022/09/09 07:42:17;;;;;;;;;;;;;;;17.83;100.00;100565.13;5052579;28;19925;-28
2022/09/09 07:44:46;;;;;;;;;;;;;;;17.99;100.00;100559.56;5070719;28;20408;-29
2022/09/09 07:47:15;;;;;;;;;;;;;;;18.15;100.00;100561.28;5045525;28;20007;-29
2022/09/09 07:49:46;;;;;;;;;;;;;;;18.10;100.00;100560.72;5053406;28;19928;-29
2022/09/09 07:52:18;;;;;;;;;;;;;;;18.21;100.00;100553.38;5066912;28;19932;-30
2022/09/09 07:54:52;;;;;;;;;;;;;;;18.19;100.00;100559.38;5038021;28;20405;-29
2022/09/09 07:57:20;;;;;;;;;;;;;;;18.16;100.00;100560.13;5053116;28;19928;-29
2022/09/09 07:59:49;;;;;;;;;;;;;;;18.40;100.00;100558.34;5070393;28;19928;-29
2022/09/09 08:02:17;;;;;;;;;;;;;;;18.61;100.00;100561.84;5053528;28;19928;-32
2022/09/09 08:04:45;;;;;;;;;;;;;;;18.64;100.00;100563.13;5053732;28;20279;-28
2022/09/09 08:07:15;;;;;;;;;;;;;;;18.78;100.00;100561.53;5052399;28;19931;-31
2022/09/09 08:09:49;;;;;;;;;;;;;;;18.67;100.00;100560.41;5053487;28;20019;-33
2022/09/09 08:12:21;;;;;;;;;;;;;;;18.61;100.00;100567.47;5052598;28;20377;-31
2022/09/09 08:14:51;;;;;;;;;;;;;;;18.36;100.00;100568.75;5060773;28;20336;-31
2022/09/09 08:17:19;;;;;;;;;;;;;;;18.36;100.00;100557.47;5056225;28;19932;-32
2022/09/09 08:19:47;;;;;;;;;;;;;;;18.32;100.00;100563.00;5049450;28;20294;-32
2022/09/09 08:22:21;;;;;;;;;;;;;;;18.37;100.00;100557.09;5052896;28;19928;-30
2022/09/09 08:24:50;;;;;;;;;;;;;;;18.49;100.00;100561.88;5053637;28;19928;-28
2022/09/09 08:27:18;;;;;;;;;;;;;;;18.58;100.00;100557.69;5051725;28;19964;-29
2022/09/09 08:29:46;;;;;;;;;;;;;;;18.66;100.00;100564.41;5053127;28;20046;-29
2022/09/09 08:32:16;;;;;;;;;;;;;;;18.59;100.00;100567.84;5052663;28;19928;-29
2022/09/09 08:34:45;;;;;;;;;;;;;;;18.63;100.00;100558.66;5052391;28;20307;-31
2022/09/09 08:37:17;;;;;;;;;;;;;;;18.51;100.00;100562.34;5052765;28;19989;-29
2022/09/09 08:39:45;;;;;;;;;;;;;;;18.41;100.00;100562.84;5071244;28;19925;-29
2022/09/09 08:42:25;;;;;;;;;;;;;;;18.30;100.00;100564.53;5051983;28;19924;-28
2022/09/09 08:45:03;;;;;;;;;;;;;;;18.28;100.00;100555.59;5041545;28;20403;-29
2022/09/09 08:47:38;;;;;;;;;;;;;;;18.16;100.00;100564.94;5056487;28;19925;-29
2022/09/09 08:50:12;;;;;;;;;;;;;;;18.08;100.00;100563.88;5065801;28;19925;-29
2022/09/09 08:52:44;;;;;;;;;;;;;;;17.99;100.00;100571.66;5056920;28;19960;-31
2022/09/09 08:55:21;;;;;;;;;;;;;;;17.99;100.00;100568.84;5056208;28;19925;-32
2022/09/09 08:57:51;;;;;;;;;;;;;;;17.93;100.00;100580.75;5056492;28;19995;-34
2022/09/09 09:00:19;;;;;;;;;;;;;;;17.76;100.00;100576.19;5056978;28;19931;-32
2022/09/09 09:02:55;;;;;;;;;;;;;;;17.72;100.00;100580.91;5055953;28;19978;-33
2022/09/09 09:05:29;;;;;;;;;;;;;;;17.65;100.00;100604.06;5053154;28;19925;-41
2022/09/09 09:08:06;;;;;;;;;;;;;;;17.58;100.00;100589.72;5055780;28;20453;-37
2022/09/09 09:10:39;;;;;;;;;;;;;;;17.51;100.00;100592.28;5035017;28;20631;-36
2022/09/09 09:13:14;;;;;;;;;;;;;;;17.54;100.00;100598.03;5046446;28;19974;-37
2022/09/09 09:15:45;;;;;;;;;;;;;;;17.48;100.00;100601.44;5057753;28;19925;-42
2022/09/09 09:18:15;;;;;;;;;;;;;;;17.44;100.00;100601.31;5066073;28;19925;-42
2022/09/09 09:20:49;;;;;;;;;;;;;;;17.38;100.00;100608.38;5054451;28;19925;-38
2022/09/09 09:23:22;;;;;;;;;;;;;;;17.38;100.00;100607.56;5044674;28;19930;-35
2022/09/09 09:25:51;;;;;;;;;;;;;;;17.33;100.00;100600.16;5068435;28;19924;-35
2022/09/09 09:28:22;;;;;;;;;;;;;;;17.32;100.00;100612.59;5056368;28;19936;-32
2022/09/09 09:30:57;;;;;;;;;;;;;;;17.27;100.00;100604.38;5055621;28;19925;-32
2022/09/09 09:33:29;;;;;;;;;;;;;;;17.22;100.00;100619.50;5056146;28;20023;-34
2022/09/09 09:35:59;;;;;;;;;;;;;;;17.17;100.00;100610.47;5056359;28;19925;-39
2022/09/09 09:38:28;;;;;;;;;;;;;;;17.18;100.00;100606.47;5055488;28;19932;-32
2022/09/09 09:41:18;;;;;;;;;;;;;;;17.21;100.00;100608.56;5055913;28;20298;-41
2022/09/09 09:43:54;;;;;;;;;;;;;;;17.21;100.00;100606.59;5055844;28;19931;-33
2022/09/09 09:46:25;;;;;;;;;;;;;;;17.18;100.00;100612.94;5055493;28;19925;-35
2022/09/09 09:48:59;;;;;;;;;;;;;;;17.10;100.00;100610.22;5056042;28;19928;-41
2022/09/09 09:51:29;;;;;;;;;;;;;;;17.06;100.00;100614.91;5055305;28;19925;-33
2022/09/09 09:54:07;;;;;;;;;;;;;;;17.02;100.00;100614.75;5074092;28;19925;-33
2022/09/09 09:56:35;;;;;;;;;;;;;;;17.02;100.00;100613.94;5062359;28;19925;-43
2022/09/09 09:59:05;;;;;;;;;;;;;;;17.05;100.00;100618.88;5055053;28;20373;-32
2022/09/09 10:01:51;;;;;;;;;;;;;;;17.04;100.00;100605.97;5055706;28;19928;-31
2022/09/09 10:04:23;;;;;;;;;;;;;;;17.11;100.00;100609.03;5055772;28;20027;-31
2022/09/09 10:06:53;;;;;;;;;;;;;;;17.15;100.00;100612.81;5054744;28;19928;-34
2022/09/09 10:09:23;;;;;;;;;;;;;;;17.19;100.00;100606.09;5073778;28;19928;-34
2022/09/09 10:11:56;;;;;;;;;;;;;;;17.24;100.00;100610.69;5073345;28;19994;-37
2022/09/09 10:14:28;;;;;;;;;;;;;;;17.33;100.00;100602.97;5072482;28;19924;-39
2022/09/09 10:17:03;;;;;;;;;;;;;;;17.42;100.00;100605.66;5073494;28;19970;-32
2022/09/09 10:19:33;;;;;;;;;;;;;;;17.49;100.00;100606.75;5072690;28;19929;-40
2022/09/09 10:22:09;;;;;;;;;;;;;;;17.55;100.00;100610.16;5055417;28;19928;-37
2022/09/09 10:24:55;;;;;;;;;;;;;;;17.57;100.00;100607.81;5073397;28;20000;-32
2022/09/09 10:27:26;;;;;;;;;;;;;;;17.61;100.00;100603.09;5067844;28;19931;-33
2022/09/09 10:30:02;;;;;;;;;;;;;;;17.64;100.00;100602.41;5073046;28;19963;-32
2022/09/09 10:32:37;;;;;;;;;;;;;;;17.62;100.00;100607.56;5073299;28;19924;-34
2022/09/09 10:35:10;;;;;;;;;;;;;;;17.58;100.00;100601.78;5072507;28;19929;-36
2022/09/09 10:37:46;;;;;;;;;;;;;;;17.56;100.00;100612.63;5054907;28;19924;-36
2022/09/09 10:40:24;;;;;;;;;;;;;;;17.58;100.00;100607.44;5073003;28;20340;-31
2022/09/09 10:42:52;;;;;;;;;;;;;;;17.64;100.00;100604.38;5072996;28;19929;-32
2022/09/09 10:45:22;;;;;;;;;;;;;;;17.67;100.00;100595.25;5073462;28;19937;-33
2022/09/09 10:47:57;;;;;;;;;;;;;;;17.78;100.00;100596.44;5072135;28;19932;-34
2022/09/09 10:50:41;;;;;;;;;;;;;;;18.00;100.00;100593.06;5072694;28;19981;-36
2022/09/09 10:53:37;;;;;;;;;;;;;;;18.21;100.00;100595.75;5070316;28;19928;-34
2022/09/09 10:56:07;;;;;;;;;;;;;;;18.48;100.00;100583.66;5053743;28;20351;-37
2022/09/09 10:58:39;;;;;;;;;;;;;;;18.63;100.00;100590.56;5072449;28;19924;-40
2022/09/09 11:01:10;;;;;;;;;;;;;;;18.68;100.00;100583.84;5072891;28;19929;-32
2022/09/09 11:03:41;;;;;;;;;;;;;;;18.69;100.00;100585.47;5067837;28;19943;-32
2022/09/09 11:06:13;;;;;;;;;;;;;;;18.68;100.00;100598.78;5072663;28;20298;-32
2022/09/09 11:08:41;;;;;;;;;;;;;;;18.64;100.00;100588.56;5052823;28;19931;-36
2022/09/09 11:11:11;;;;;;;;;;;;;;;18.54;100.00;100599.19;5072331;28;19981;-32
2022/09/09 11:13:44;;;;;;;;;;;;;;;18.51;100.00;100587.75;5072529;28;19935;-33
2022/09/09 11:16:17;;;;;;;;;;;;;;;18.44;100.00;100599.66;5071913;28;19990;-37
2022/09/09 11:18:47;;;;;;;;;;;;;;;18.31;100.00;100598.06;5064590;28;19928;-32
2022/09/09 11:21:18;;;;;;;;;;;;;;;18.25;100.00;100593.84;5072184;28;19963;-36
2022/09/09 11:23:49;;;;;;;;;;;;;;;18.17;100.00;100587.19;5067083;28;19963;-32
2022/09/09 11:26:19;;;;;;;;;;;;;;;18.09;100.00;100593.78;5072573;28;19982;-31
2022/09/09 11:28:54;;;;;;;;;;;;;;;18.07;100.00;100598.97;5072179;28;19944;-31
2022/09/09 11:31:33;;;;;;;;;;;;;;;18.13;100.00;100591.06;5071604;28;19932;-34
2022/09/09 11:34:19;;;;;;;;;;;;;;;18.21;100.00;100598.56;5070863;28;19936;-38
2022/09/09 11:36:56;;;;;;;;;;;;;;;18.26;100.00;100592.66;5061529;28;19973;-41
2022/09/09 11:39:37;;;;;;;;;;;;;;;18.28;100.00;100593.13;5064409;28;19924;-32
2022/09/09 11:42:08;;;;;;;;;;;;;;;18.28;100.00;100586.66;5071976;28;19925;-31
2022/09/09 11:44:36;;;;;;;;;;;;;;;18.29;100.00;100591.97;5068019;28;19929;-32
2022/09/09 11:47:04;;;;;;;;;;;;;;;18.24;100.00;100587.38;5071806;28;19936;-39
2022/09/09 11:49:41;;;;;;;;;;;;;;;18.27;100.00;100597.13;5066720;28;19928;-38
2022/09/09 11:52:14;;;;;;;;;;;;;;;18.32;100.00;100593.25;5071243;28;20328;-38
2022/09/09 11:54:47;;;;;;;;;;;;;;;18.46;100.00;100586.00;5070270;28;19925;-32
2022/09/09 11:57:24;;;;;;;;;;;;;;;18.48;100.00;100582.81;5071775;28;19947;-32
2022/09/09 11:59:52;;;;;;;;;;;;;;;18.58;100.00;100582.31;5051499;28;19940;-32
2022/09/09 12:02:23;;;;;;;;;;;;;;;18.65;100.00;100588.19;5071799;28;20339;-36
2022/09/09 12:04:56;;;;;;;;;;;;;;;18.66;100.00;100577.72;5070586;28;19928;-40
2022/09/09 12:07:30;;;;;;;;;;;;;;;18.64;100.00;100583.72;5071634;28;20266;-40
2022/09/09 12:10:00;;;;;;;;;;;;;;;18.62;100.00;100576.78;5071517;28;19986;-37
2022/09/09 12:12:32;;;;;;;;;;;;;;;18.61;100.00;100570.31;5071001;28;19924;-39
2022/09/09 12:15:02;;;;;;;;;;;;;;;18.62;100.00;100577.59;5071160;28;20455;-37
2022/09/09 12:17:31;;;;;;;;;;;;;;;18.59;100.00;100569.84;5071705;28;19929;-34
2022/09/09 12:20:05;;;;;;;;;;;;;;;18.55;100.00;100554.78;5069863;28;19935;-32
2022/09/09 12:22:39;;;;;;;;;;;;;;;18.56;100.00;100556.44;5071631;28;19929;-38
2022/09/09 12:25:17;;;;;;;;;;;;;;;18.55;100.00;100554.78;5071410;28;19970;-32
2022/09/09 12:27:58;;;;;;;;;;;;;;;18.46;100.00;100559.75;5050804;28;19924;-36
2022/09/09 12:30:30;;;;;;;;;;;;;;;18.35;100.00;100559.47;5067589;28;19975;-36
2022/09/09 12:33:01;;;;;;;;;;;;;;;18.28;100.00;100553.59;5070846;28;19929;-32
2022/09/09 12:35:30;;;;;;;;;;;;;;;18.24;100.00;100558.31;5071117;28;19998;-35
2022/09/09 12:38:02;;;;;;;;;;;;;;;18.14;100.00;100554.00;5071569;28;19924;-32
2022/09/09 12:40:31;;;;;;;;;;;;;;;18.07;100.00;100558.59;5070311;28;19932;-37
2022/09/09 12:42:59;;;;;;;;;;;;;;;18.02;100.00;100578.59;5071144;28;19925;-35
2022/09/09 12:45:30;;;;;;;;;;;;;;;17.88;100.00;100574.16;5070717;28;19974;-33
2022/09/09 12:48:00;;;;;;;;;;;;;;;17.74;100.00;100567.25;5070851;28;19970;-34